sensor_id;sensor_type;location;lat;lon;timestamp;pressure;altitude;pressure_sealevel;temperature;humidity
56912;BME280;42800;53.928;27.662;2023-02-28T00:00:34;99563.81;;;-3.80;100.00
56912;BME280;42800;53.928;27.662;2023-02-28T00:03:01;99564.72;;;-3.69;100.00
56912;BME280;42800;53.928;27.662;2023-02-28T00:05:28;99556.16;;;-3.66;100.00
56912;BME280;42800;53.928;27.662;2023-02-28T00:07:55;99549.59;;;-3.91;100.00
56912;BME280;42800;53.928;27.662;2023-02-28T00:10:24;99571.34;;;-4.24;100.00
56912;BME280;42800;53.928;27.662;2023-02-28T00:12:53;99634.09;;;-3.68;100.00
56912;BME280;42800;53.928;27.662;2023-02-28T00:15:20;99620.75;;;-4.05;100.00
56912;BME280;42800;53.928;27.662;2023-02-28T00:17:46;99629.19;;;-3.86;100.00
56912;BME280;42800;53.928;27.662;2023-02-28T00:20:13;99609.13;;;-3.79;100.00
56912;BME280;42800;53.928;27.662;2023-02-28T00:22:41;99602.50;;;-3.66;100.00
56912;BME280;42800;53.928;27.662;2023-02-28T00:25:08;99584.47;;;-3.81;100.00
56912;BME280;42800;53.928;27.662;2023-02-28T00:27:37;99600.47;;;-3.96;100.00
56912;BME280;42800;53.928;27.662;2023-02-28T00:30:05;99629.53;;;-3.67;100.00
56912;BME280;42800;53.928;27.662;2023-02-28T00:32:32;99654.47;;;-3.67;100.00
56912;BME280;42800;53.928;27.662;2023-02-28T00:34:59;99626.56;;;-3.71;100.00
56912;BME280;42800;53.928;27.662;2023-02-28T00:37:26;99610.03;;;-3.58;100.00
56912;BME280;42800;53.928;27.662;2023-02-28T00:39:52;99593.06;;;-3.73;100.00
56912;BME280;42800;53.928;27.662;2023-02-28T00:42:18;99605.94;;;-3.70;100.00
56912;BME280;42800;53.928;27.662;2023-02-28T00:44:45;99606.22;;;-3.72;100.00
56912;BME280;42800;53.928;27.662;2023-02-28T00:47:11;99589.69;;;-4.01;100.00
56912;BME280;42800;53.928;27.662;2023-02-28T00:49:38;99612.66;;;-4.10;100.00
56912;BME280;42800;53.928;27.662;2023-02-28T00:52:04;99657.94;;;-4.41;100.00
56912;BME280;42800;53.928;27.662;2023-02-28T00:54:30;99697.84;;;-4.07;100.00
56912;BME280;42800;53.928;27.662;2023-02-28T00:56:56;99693.13;;;-3.95;100.00
56912;BME280;42800;53.928;27.662;2023-02-28T00:59:22;99669.88;;;-3.89;100.00
56912;BME280;42800;53.928;27.662;2023-02-28T01:01:49;99665.91;;;-3.82;100.00
56912;BME280;42800;53.928;27.662;2023-02-28T01:04:16;99668.34;;;-3.75;100.00
56912;BME280;42800;53.928;27.662;2023-02-28T01:06:42;99660.66;;;-3.66;100.00
56912;BME280;42800;53.928;27.662;2023-02-28T01:09:08;99644.19;;;-3.80;100.00
56912;BME280;42800;53.928;27.662;2023-02-28T01:11:35;99638.78;;;-3.90;100.00
56912;BME280;42800;53.928;27.662;2023-02-28T01:14:02;99662.50;;;-3.67;100.00
56912;BME280;42800;53.928;27.662;2023-02-28T01:16:29;99648.28;;;-3.72;100.00
56912;BME280;42800;53.928;27.662;2023-02-28T01:18:56;99633.25;;;-3.73;100.00
56912;BME280;42800;53.928;27.662;2023-02-28T01:21:24;99626.91;;;-3.62;100.00
56912;BME280;42800;53.928;27.662;2023-02-28T01:23:50;99620.63;;;-3.83;100.00
56912;BME280;42800;53.928;27.662;2023-02-28T01:26:18;99625.16;;;-3.84;100.00
56912;BME280;42800;53.928;27.662;2023-02-28T01:28:45;99623.56;;;-3.85;100.00
56912;BME280;42800;53.928;27.662;2023-02-28T01:31:12;99623.00;;;-3.87;100.00
56912;BME280;42800;53.928;27.662;2023-02-28T01:33:38;99612.44;;;-4.04;100.00
56912;BME280;42800;53.928;27.662;2023-02-28T01:36:08;99634.94;;;-4.37;100.00
56912;BME280;42800;53.928;27.662;2023-02-28T01:38:35;99670.16;;;-4.23;100.00
56912;BME280;42800;53.928;27.662;2023-02-28T01:41:01;99680.50;;;-4.32;100.00
56912;BME280;42800;53.928;27.662;2023-02-28T01:43:29;99690.56;;;-4.44;100.00
56912;BME280;42800;53.928;27.662;2023-02-28T01:45:57;99724.63;;;-4.61;100.00
56912;BME280;42800;53.928;27.662;2023-02-28T01:48:26;99760.38;;;-4.72;100.00
56912;BME280;42800;53.928;27.662;2023-02-28T01:50:55;99826.94;;;-4.76;100.00
56912;BME280;42800;53.928;27.662;2023-02-28T01:53:26;99880.97;;;-5.13;100.00
56912;BME280;42800;53.928;27.662;2023-02-28T01:55:56;99970.25;;;-4.97;100.00
56912;BME280;42800;53.928;27.662;2023-02-28T01:58:23;99979.44;;;-4.93;100.00
56912;BME280;42800;53.928;27.662;2023-02-28T02:00:50;99967.19;;;-5.06;100.00
56912;BME280;42800;53.928;27.662;2023-02-28T02:03:18;100009.47;;;-5.03;100.00
56912;BME280;42800;53.928;27.662;2023-02-28T02:05:46;100008.47;;;-5.13;100.00
56912;BME280;42800;53.928;27.662;2023-02-28T02:08:16;100031.88;;;-5.21;100.00
56912;BME280;42800;53.928;27.662;2023-02-28T02:10:45;100089.66;;;-5.19;100.00
56912;BME280;42800;53.928;27.662;2023-02-28T02:13:39;100100.22;;;-5.25;100.00
56912;BME280;42800;53.928;27.662;2023-02-28T02:16:23;100109.34;;;-5.37;100.00
56912;BME280;42800;53.928;27.662;2023-02-28T02:18:54;100147.09;;;-5.34;100.00
56912;BME280;42800;53.928;27.662;2023-02-28T02:21:51;100195.09;;;-5.39;100.00
56912;BME280;42800;53.928;27.662;2023-02-28T02:24:58;100206.25;;;-5.42;100.00
56912;BME280;42800;53.928;27.662;2023-02-28T02:27:46;100216.59;;;-5.46;100.00
56912;BME280;42800;53.928;27.662;2023-02-28T02:30:43;100237.50;;;-5.54;100.00
56912;BME280;42800;53.928;27.662;2023-02-28T02:33:24;100271.56;;;-5.38;100.00
56912;BME280;42800;53.928;27.662;2023-02-28T02:35:56;100289.34;;;-5.55;100.00
56912;BME280;42800;53.928;27.662;2023-02-28T02:38:32;100301.31;;;-5.46;100.00
56912;BME280;42800;53.928;27.662;2023-02-28T02:41:06;100298.50;;;-5.51;100.00
56912;BME280;42800;53.928;27.662;2023-02-28T02:43:37;100298.50;;;-5.63;100.00
56912;BME280;42800;53.928;27.662;2023-02-28T02:46:10;100328.69;;;-5.62;100.00
56912;BME280;42800;53.928;27.662;2023-02-28T02:48:40;100348.91;;;-5.55;100.00
56912;BME280;42800;53.928;27.662;2023-02-28T02:51:12;100328.22;;;-5.71;100.00
56912;BME280;42800;53.928;27.662;2023-02-28T02:53:42;100355.06;;;-5.66;100.00
56912;BME280;42800;53.928;27.662;2023-02-28T02:56:10;100361.78;;;-5.63;100.00
56912;BME280;42800;53.928;27.662;2023-02-28T02:58:40;100371.50;;;-5.81;100.00
56912;BME280;42800;53.928;27.662;2023-02-28T03:01:11;100393.94;;;-5.70;100.00
56912;BME280;42800;53.928;27.662;2023-02-28T03:03:38;100387.88;;;-5.77;100.00
56912;BME280;42800;53.928;27.662;2023-02-28T03:06:05;100398.72;;;-5.72;100.00
56912;BME280;42800;53.928;27.662;2023-02-28T03:08:35;100384.03;;;-5.81;100.00
56912;BME280;42800;53.928;27.662;2023-02-28T03:11:03;100385.31;;;-5.84;100.00
56912;BME280;42800;53.928;27.662;2023-02-28T03:13:41;100403.78;;;-5.82;100.00
56912;BME280;42800;53.928;27.662;2023-02-28T03:16:21;100414.78;;;-5.91;100.00
56912;BME280;42800;53.928;27.662;2023-02-28T03:18:56;100433.00;;;-5.87;100.00
56912;BME280;42800;53.928;27.662;2023-02-28T03:21:27;100428.47;;;-5.99;100.00
56912;BME280;42800;53.928;27.662;2023-02-28T03:24:04;100437.31;;;-5.98;100.00
56912;BME280;42800;53.928;27.662;2023-02-28T03:26:34;100445.56;;;-6.00;100.00
56912;BME280;42800;53.928;27.662;2023-02-28T03:29:04;100456.22;;;-6.18;100.00
56912;BME280;42800;53.928;27.662;2023-02-28T03:31:36;100486.84;;;-6.02;100.00
56912;BME280;42800;53.928;27.662;2023-02-28T03:34:08;100489.97;;;-6.05;100.00
56912;BME280;42800;53.928;27.662;2023-02-28T03:36:37;100490.94;;;-6.18;100.00
56912;BME280;42800;53.928;27.662;2023-02-28T03:39:10;100513.75;;;-6.04;100.00
56912;BME280;42800;53.928;27.662;2023-02-28T03:41:42;100523.34;;;-5.96;100.00
56912;BME280;42800;53.928;27.662;2023-02-28T03:44:16;100512.00;;;-6.53;100.00
56912;BME280;42800;53.928;27.662;2023-02-28T03:46:48;100551.94;;;-6.22;100.00
56912;BME280;42800;53.928;27.662;2023-02-28T03:49:17;100555.97;;;-6.12;100.00
56912;BME280;42800;53.928;27.662;2023-02-28T03:51:47;100535.81;;;-6.33;100.00
56912;BME280;42800;53.928;27.662;2023-02-28T03:54:18;100545.75;;;-6.41;100.00
56912;BME280;42800;53.928;27.662;2023-02-28T03:56:50;100561.44;;;-6.26;100.00
56912;BME280;42800;53.928;27.662;2023-02-28T03:59:21;100547.53;;;-6.34;100.00
56912;BME280;42800;53.928;27.662;2023-02-28T04:01:52;100541.84;;;-6.38;100.00
56912;BME280;42800;53.928;27.662;2023-02-28T04:04:19;100557.63;;;-6.36;100.00
56912;BME280;42800;53.928;27.662;2023-02-28T04:06:45;100566.84;;;-6.32;100.00
56912;BME280;42800;53.928;27.662;2023-02-28T04:09:13;100572.88;;;-6.19;100.00
56912;BME280;42800;53.928;27.662;2023-02-28T04:11:42;100566.59;;;-6.31;100.00
56912;BME280;42800;53.928;27.662;2023-02-28T04:14:10;100572.31;;;-6.27;100.00
56912;BME280;42800;53.928;27.662;2023-02-28T04:16:39;100570.84;;;-6.23;100.00
56912;BME280;42800;53.928;27.662;2023-02-28T04:19:07;100554.69;;;-6.28;100.00
56912;BME280;42800;53.928;27.662;2023-02-28T04:21:35;100560.16;;;-6.23;100.00
56912;BME280;42800;53.928;27.662;2023-02-28T04:24:02;100536.25;;;-6.36;100.00
56912;BME280;42800;53.928;27.662;2023-02-28T04:26:29;100547.72;;;-6.29;100.00
56912;BME280;42800;53.928;27.662;2023-02-28T04:28:56;100529.88;;;-6.54;100.00
56912;BME280;42800;53.928;27.662;2023-02-28T04:31:23;100542.75;;;-6.51;100.00
56912;BME280;42800;53.928;27.662;2023-02-28T04:33:49;100556.38;;;-6.34;100.00
56912;BME280;42800;53.928;27.662;2023-02-28T04:36:15;100555.13;;;-6.31;100.00
56912;BME280;42800;53.928;27.662;2023-02-28T04:38:44;100548.22;;;-6.39;100.00
56912;BME280;42800;53.928;27.662;2023-02-28T04:41:10;100547.47;;;-6.46;100.00
56912;BME280;42800;53.928;27.662;2023-02-28T04:43:37;100541.16;;;-6.52;100.00
56912;BME280;42800;53.928;27.662;2023-02-28T04:46:04;100550.50;;;-6.43;100.00
56912;BME280;42800;53.928;27.662;2023-02-28T04:48:33;100545.38;;;-6.44;100.00
56912;BME280;42800;53.928;27.662;2023-02-28T04:51:00;100553.19;;;-6.43;100.00
56912;BME280;42800;53.928;27.662;2023-02-28T04:53:27;100524.59;;;-6.60;100.00
56912;BME280;42800;53.928;27.662;2023-02-28T04:55:54;100555.28;;;-6.51;100.00
56912;BME280;42800;53.928;27.662;2023-02-28T04:58:21;100543.50;;;-6.62;100.00
56912;BME280;42800;53.928;27.662;2023-02-28T05:00:48;100547.13;;;-6.56;100.00
56912;BME280;42800;53.928;27.662;2023-02-28T05:03:15;100551.91;;;-6.40;100.00
56912;BME280;42800;53.928;27.662;2023-02-28T05:05:41;100550.41;;;-6.54;100.00
56912;BME280;42800;53.928;27.662;2023-02-28T05:08:07;100544.94;;;-6.41;100.00
56912;BME280;42800;53.928;27.662;2023-02-28T05:10:35;100541.09;;;-6.45;100.00
56912;BME280;42800;53.928;27.662;2023-02-28T05:13:01;100535.81;;;-6.33;100.00
56912;BME280;42800;53.928;27.662;2023-02-28T05:15:27;100507.44;;;-6.28;100.00
56912;BME280;42800;53.928;27.662;2023-02-28T05:17:54;100481.13;;;-6.24;100.00
56912;BME280;42800;53.928;27.662;2023-02-28T05:20:20;100455.56;;;-6.32;100.00
56912;BME280;42800;53.928;27.662;2023-02-28T05:22:47;100440.28;;;-6.25;100.00
56912;BME280;42800;53.928;27.662;2023-02-28T05:25:17;100424.13;;;-6.30;100.00
56912;BME280;42800;53.928;27.662;2023-02-28T05:27:43;100399.44;;;-6.25;100.00
56912;BME280;42800;53.928;27.662;2023-02-28T05:30:10;100390.63;;;-6.26;100.00
56912;BME280;42800;53.928;27.662;2023-02-28T05:32:38;100373.63;;;-6.13;100.00
56912;BME280;42800;53.928;27.662;2023-02-28T05:35:05;100357.56;;;-6.25;100.00
56912;BME280;42800;53.928;27.662;2023-02-28T05:37:32;100354.09;;;-6.13;100.00
56912;BME280;42800;53.928;27.662;2023-02-28T05:39:58;100350.50;;;-6.19;100.00
56912;BME280;42800;53.928;27.662;2023-02-28T05:42:24;100367.31;;;-5.88;100.00
56912;BME280;42800;53.928;27.662;2023-02-28T05:44:50;100374.47;;;-5.59;100.00
56912;BME280;42800;53.928;27.662;2023-02-28T05:47:17;100377.91;;;-4.81;100.00
56912;BME280;42800;53.928;27.662;2023-02-28T05:49:43;100293.16;;;-4.23;100.00
56912;BME280;42800;53.928;27.662;2023-02-28T05:52:09;100150.50;;;-3.85;100.00
56912;BME280;42800;53.928;27.662;2023-02-28T05:54:36;100001.66;;;-3.27;100.00
56912;BME280;42800;53.928;27.662;2023-02-28T05:57:03;99751.66;;;-2.87;100.00
56912;BME280;42800;53.928;27.662;2023-02-28T05:59:29;99529.47;;;-2.03;100.00
56912;BME280;42800;53.928;27.662;2023-02-28T06:01:55;99361.59;;;-1.66;100.00
56912;BME280;42800;53.928;27.662;2023-02-28T06:04:21;99343.25;;;-0.96;100.00
56912;BME280;42800;53.928;27.662;2023-02-28T06:06:49;99399.47;;;-0.41;100.00
56912;BME280;42800;53.928;27.662;2023-02-28T06:09:15;99507.28;;;0.07;100.00
56912;BME280;42800;53.928;27.662;2023-02-28T06:11:42;99607.09;;;0.26;100.00
56912;BME280;42800;53.928;27.662;2023-02-28T06:14:14;99668.84;;;0.57;100.00
56912;BME280;42800;53.928;27.662;2023-02-28T06:16:41;99714.16;;;0.84;100.00
56912;BME280;42800;53.928;27.662;2023-02-28T06:19:08;99750.56;;;1.10;100.00
56912;BME280;42800;53.928;27.662;2023-02-28T06:21:35;99782.28;;;1.48;100.00
56912;BME280;42800;53.928;27.662;2023-02-28T06:24:01;99798.31;;;1.82;100.00
56912;BME280;42800;53.928;27.662;2023-02-28T06:26:28;99817.13;;;2.11;100.00
56912;BME280;42800;53.928;27.662;2023-02-28T06:28:55;99835.31;;;2.05;100.00
56912;BME280;42800;53.928;27.662;2023-02-28T06:31:22;99843.00;;;2.17;100.00
56912;BME280;42800;53.928;27.662;2023-02-28T06:33:48;99845.84;;;2.45;100.00
56912;BME280;42800;53.928;27.662;2023-02-28T06:36:15;99850.84;;;2.70;100.00
56912;BME280;42800;53.928;27.662;2023-02-28T06:38:42;99871.59;;;2.94;100.00
56912;BME280;42800;53.928;27.662;2023-02-28T06:41:09;99887.75;;;2.99;100.00
56912;BME280;42800;53.928;27.662;2023-02-28T06:43:38;99887.19;;;3.29;100.00
56912;BME280;42800;53.928;27.662;2023-02-28T06:46:07;99886.31;;;3.34;100.00
56912;BME280;42800;53.928;27.662;2023-02-28T06:48:34;99879.41;;;3.42;100.00
56912;BME280;42800;53.928;27.662;2023-02-28T06:51:04;99886.53;;;3.65;100.00
56912;BME280;42800;53.928;27.662;2023-02-28T06:53:31;99896.28;;;3.94;100.00
56912;BME280;42800;53.928;27.662;2023-02-28T06:55:57;99890.72;;;4.13;100.00
56912;BME280;42800;53.928;27.662;2023-02-28T06:58:23;99902.50;;;4.08;100.00
56912;BME280;42800;53.928;27.662;2023-02-28T07:00:51;99907.88;;;4.36;100.00
56912;BME280;42800;53.928;27.662;2023-02-28T07:03:18;99917.28;;;4.52;100.00
56912;BME280;42800;53.928;27.662;2023-02-28T07:05:45;99926.22;;;4.89;99.43
56912;BME280;42800;53.928;27.662;2023-02-28T07:08:11;99925.13;;;4.90;100.00
56912;BME280;42800;53.928;27.662;2023-02-28T07:10:38;99936.91;;;5.08;94.54
56912;BME280;42800;53.928;27.662;2023-02-28T07:13:05;99939.19;;;5.14;95.19
56912;BME280;42800;53.928;27.662;2023-02-28T07:15:31;99931.53;;;4.94;98.79
56912;BME280;42800;53.928;27.662;2023-02-28T07:17:57;99930.47;;;5.26;94.40
56912;BME280;42800;53.928;27.662;2023-02-28T07:20:24;99927.00;;;5.34;95.01
56912;BME280;42800;53.928;27.662;2023-02-28T07:22:51;99924.72;;;4.83;91.77
56912;BME280;42800;53.928;27.662;2023-02-28T07:25:21;99912.75;;;5.06;98.24
56912;BME280;42800;53.928;27.662;2023-02-28T07:27:48;99915.44;;;5.29;98.68
56912;BME280;42800;53.928;27.662;2023-02-28T07:30:14;99928.75;;;5.61;95.95
56912;BME280;42800;53.928;27.662;2023-02-28T07:32:40;99935.59;;;5.59;91.19
56912;BME280;42800;53.928;27.662;2023-02-28T07:35:07;99927.72;;;5.49;96.34
56912;BME280;42800;53.928;27.662;2023-02-28T07:37:34;99922.22;;;7.50;90.51
56912;BME280;42800;53.928;27.662;2023-02-28T07:40:03;99927.41;;;7.25;82.19
56912;BME280;42800;53.928;27.662;2023-02-28T07:42:31;99939.47;;;6.55;84.54
56912;BME280;42800;53.928;27.662;2023-02-28T07:44:58;99940.06;;;6.34;84.32
56912;BME280;42800;53.928;27.662;2023-02-28T07:47:24;99934.50;;;6.57;85.04
56912;BME280;42800;53.928;27.662;2023-02-28T07:49:50;99933.38;;;5.61;87.65
56912;BME280;42800;53.928;27.662;2023-02-28T07:52:16;99925.81;;;6.38;85.35
56912;BME280;42800;53.928;27.662;2023-02-28T07:54:43;99925.66;;;6.34;83.24
56912;BME280;42800;53.928;27.662;2023-02-28T07:57:10;99919.19;;;6.04;87.79
56912;BME280;42800;53.928;27.662;2023-02-28T07:59:36;99924.34;;;6.14;85.40
56912;BME280;42800;53.928;27.662;2023-02-28T08:02:02;99915.03;;;6.15;90.08
56912;BME280;42800;53.928;27.662;2023-02-28T08:04:31;99921.84;;;6.61;86.23
56912;BME280;42800;53.928;27.662;2023-02-28T08:06:57;99933.84;;;6.69;80.58
56912;BME280;42800;53.928;27.662;2023-02-28T08:09:24;99930.97;;;6.48;80.61
56912;BME280;42800;53.928;27.662;2023-02-28T08:11:51;99924.69;;;6.30;85.32
56912;BME280;42800;53.928;27.662;2023-02-28T08:14:17;99912.69;;;6.31;86.69
56912;BME280;42800;53.928;27.662;2023-02-28T08:16:43;99919.72;;;6.32;84.95
56912;BME280;42800;53.928;27.662;2023-02-28T08:19:09;99923.25;;;5.84;88.11
56912;BME280;42800;53.928;27.662;2023-02-28T08:21:35;99920.75;;;5.65;93.16
56912;BME280;42800;53.928;27.662;2023-02-28T08:24:02;99914.59;;;6.30;91.81
56912;BME280;42800;53.928;27.662;2023-02-28T08:26:28;99908.63;;;6.20;91.62
56912;BME280;42800;53.928;27.662;2023-02-28T08:28:55;99908.63;;;5.71;94.72
56912;BME280;42800;53.928;27.662;2023-02-28T08:31:21;99904.19;;;6.24;91.64
56912;BME280;42800;53.928;27.662;2023-02-28T08:33:48;99896.03;;;6.41;89.67
56912;BME280;42800;53.928;27.662;2023-02-28T08:36:17;99908.34;;;7.17;86.06
56912;BME280;42800;53.928;27.662;2023-02-28T08:38:43;99903.50;;;7.22;83.07
56912;BME280;42800;53.928;27.662;2023-02-28T08:41:11;99912.69;;;6.66;86.68
56912;BME280;42800;53.928;27.662;2023-02-28T08:43:39;99914.41;;;7.22;87.23
56912;BME280;42800;53.928;27.662;2023-02-28T08:46:06;99897.19;;;7.48;85.25
56912;BME280;42800;53.928;27.662;2023-02-28T08:48:34;99908.09;;;7.57;84.73
56912;BME280;42800;53.928;27.662;2023-02-28T08:51:05;99894.66;;;7.34;87.11
56912;BME280;42800;53.928;27.662;2023-02-28T08:53:31;99900.97;;;7.64;83.94
56912;BME280;42800;53.928;27.662;2023-02-28T08:55:59;99895.34;;;7.99;84.13
56912;BME280;42800;53.928;27.662;2023-02-28T08:58:26;99907.66;;;7.84;78.28
56912;BME280;42800;53.928;27.662;2023-02-28T09:00:53;99909.47;;;7.63;82.74
56912;BME280;42800;53.928;27.662;2023-02-28T09:03:20;99903.31;;;7.36;81.13
56912;BME280;42800;53.928;27.662;2023-02-28T09:05:55;99898.47;;;7.42;80.34
56912;BME280;42800;53.928;27.662;2023-02-28T09:08:22;99910.59;;;7.70;79.25
56912;BME280;42800;53.928;27.662;2023-02-28T09:10:48;99901.25;;;7.24;78.53
56912;BME280;42800;53.928;27.662;2023-02-28T09:13:14;99892.44;;;7.19;85.62
56912;BME280;42800;53.928;27.662;2023-02-28T09:15:41;99884.19;;;7.45;82.70
56912;BME280;42800;53.928;27.662;2023-02-28T09:18:07;99881.59;;;7.57;83.95
56912;BME280;42800;53.928;27.662;2023-02-28T09:20:34;99875.06;;;8.09;78.41
56912;BME280;42800;53.928;27.662;2023-02-28T09:23:02;99882.84;;;7.60;79.27
56912;BME280;42800;53.928;27.662;2023-02-28T09:25:29;99877.13;;;6.71;81.96
56912;BME280;42800;53.928;27.662;2023-02-28T09:27:55;99879.19;;;7.00;81.46
56912;BME280;42800;53.928;27.662;2023-02-28T09:30:21;99874.91;;;7.37;80.44
56912;BME280;42800;53.928;27.662;2023-02-28T09:32:47;99875.59;;;7.25;77.24
56912;BME280;42800;53.928;27.662;2023-02-28T09:35:19;99882.56;;;6.97;78.65
56912;BME280;42800;53.928;27.662;2023-02-28T09:37:47;99879.16;;;7.08;78.69
56912;BME280;42800;53.928;27.662;2023-02-28T09:40:13;99860.78;;;6.62;80.21
56912;BME280;42800;53.928;27.662;2023-02-28T09:42:44;99869.88;;;6.23;83.72
56912;BME280;42800;53.928;27.662;2023-02-28T09:45:19;99861.78;;;5.92;84.90
56912;BME280;42800;53.928;27.662;2023-02-28T09:47:48;99862.22;;;5.76;83.34
56912;BME280;42800;53.928;27.662;2023-02-28T09:50:22;99869.63;;;5.84;84.43
56912;BME280;42800;53.928;27.662;2023-02-28T09:52:55;99874.00;;;6.03;82.57
56912;BME280;42800;53.928;27.662;2023-02-28T09:55:26;99865.72;;;6.43;85.32
56912;BME280;42800;53.928;27.662;2023-02-28T09:57:54;99873.13;;;6.51;80.77
56912;BME280;42800;53.928;27.662;2023-02-28T10:00:25;99873.91;;;6.43;81.76
56912;BME280;42800;53.928;27.662;2023-02-28T10:03:04;99873.41;;;6.15;81.66
56912;BME280;42800;53.928;27.662;2023-02-28T10:05:35;99871.66;;;6.19;80.97
56912;BME280;42800;53.928;27.662;2023-02-28T10:08:12;99871.94;;;6.08;80.28
56912;BME280;42800;53.928;27.662;2023-02-28T10:10:41;99881.38;;;5.62;81.12
56912;BME280;42800;53.928;27.662;2023-02-28T10:13:15;99881.00;;;5.47;81.91
56912;BME280;42800;53.928;27.662;2023-02-28T10:15:45;99871.91;;;5.51;82.04
56912;BME280;42800;53.928;27.662;2023-02-28T10:18:15;99879.19;;;5.33;83.54
56912;BME280;42800;53.928;27.662;2023-02-28T10:20:45;99865.38;;;5.21;87.39
56912;BME280;42800;53.928;27.662;2023-02-28T10:23:17;99855.34;;;5.70;88.67
56912;BME280;42800;53.928;27.662;2023-02-28T10:25:50;99857.63;;;5.85;81.24
56912;BME280;42800;53.928;27.662;2023-02-28T10:28:19;99855.59;;;6.00;83.52
56912;BME280;42800;53.928;27.662;2023-02-28T10:30:48;99842.38;;;5.76;79.68
56912;BME280;42800;53.928;27.662;2023-02-28T10:33:21;99831.78;;;5.57;82.98
56912;BME280;42800;53.928;27.662;2023-02-28T10:35:48;99823.19;;;5.81;78.23
56912;BME280;42800;53.928;27.662;2023-02-28T10:38:18;99819.16;;;5.70;77.96
56912;BME280;42800;53.928;27.662;2023-02-28T10:40:44;99814.53;;;5.70;74.64
56912;BME280;42800;53.928;27.662;2023-02-28T10:43:20;99809.59;;;5.81;76.35
56912;BME280;42800;53.928;27.662;2023-02-28T10:45:56;99802.31;;;6.07;76.28
56912;BME280;42800;53.928;27.662;2023-02-28T10:48:29;99794.59;;;6.01;77.69
56912;BME280;42800;53.928;27.662;2023-02-28T10:50:56;99792.53;;;5.98;79.56
56912;BME280;42800;53.928;27.662;2023-02-28T10:53:30;99784.06;;;6.34;76.87
56912;BME280;42800;53.928;27.662;2023-02-28T10:56:00;99784.44;;;6.88;75.22
56912;BME280;42800;53.928;27.662;2023-02-28T10:58:29;99770.00;;;7.35;73.16
56912;BME280;42800;53.928;27.662;2023-02-28T11:00:55;99769.06;;;7.22;70.94
56912;BME280;42800;53.928;27.662;2023-02-28T11:03:25;99760.63;;;7.15;71.05
56912;BME280;42800;53.928;27.662;2023-02-28T11:05:51;99762.97;;;6.87;72.10
56912;BME280;42800;53.928;27.662;2023-02-28T11:08:18;99763.47;;;6.80;72.73
56912;BME280;42800;53.928;27.662;2023-02-28T11:10:46;99757.72;;;6.64;74.64
56912;BME280;42800;53.928;27.662;2023-02-28T11:13:17;99749.28;;;6.31;74.15
56912;BME280;42800;53.928;27.662;2023-02-28T11:15:50;99749.28;;;5.96;76.61
56912;BME280;42800;53.928;27.662;2023-02-28T11:18:27;99750.72;;;6.20;73.78
56912;BME280;42800;53.928;27.662;2023-02-28T11:20:57;99743.16;;;5.07;75.10
56912;BME280;42800;53.928;27.662;2023-02-28T11:23:25;99739.00;;;5.76;77.47
56912;BME280;42800;53.928;27.662;2023-02-28T11:25:56;99722.97;;;5.65;80.46
56912;BME280;42800;53.928;27.662;2023-02-28T11:28:26;99724.34;;;5.28;78.83
56912;BME280;42800;53.928;27.662;2023-02-28T11:31:02;99715.69;;;5.26;77.59
56912;BME280;42800;53.928;27.662;2023-02-28T11:33:31;99706.03;;;4.94;85.02
56912;BME280;42800;53.928;27.662;2023-02-28T11:36:01;99696.00;;;5.03;91.25
56912;BME280;42800;53.928;27.662;2023-02-28T11:38:28;99682.53;;;4.98;92.68
56912;BME280;42800;53.928;27.662;2023-02-28T11:41:27;99675.34;;;4.54;96.73
56912;BME280;42800;53.928;27.662;2023-02-28T11:44:04;99653.75;;;4.26;100.00
56912;BME280;42800;53.928;27.662;2023-02-28T11:46:37;99663.97;;;4.20;100.00
56912;BME280;42800;53.928;27.662;2023-02-28T11:49:16;99659.66;;;3.97;100.00
56912;BME280;42800;53.928;27.662;2023-02-28T11:51:52;99661.94;;;3.81;100.00
56912;BME280;42800;53.928;27.662;2023-02-28T11:54:40;99641.16;;;3.54;100.00
56912;BME280;42800;53.928;27.662;2023-02-28T11:57:25;99639.25;;;3.54;100.00
56912;BME280;42800;53.928;27.662;2023-02-28T12:00:04;99644.28;;;3.47;100.00
56912;BME280;42800;53.928;27.662;2023-02-28T12:02:47;99649.75;;;3.34;100.00
56912;BME280;42800;53.928;27.662;2023-02-28T12:05:24;99634.25;;;2.98;100.00
56912;BME280;42800;53.928;27.662;2023-02-28T12:08:02;99615.56;;;3.10;100.00
56912;BME280;42800;53.928;27.662;2023-02-28T12:10:34;99602.06;;;2.82;100.00
56912;BME280;42800;53.928;27.662;2023-02-28T12:13:12;99619.50;;;2.90;100.00
56912;BME280;42800;53.928;27.662;2023-02-28T12:19:04;99569.59;;;2.69;100.00
56912;BME280;42800;53.928;27.662;2023-02-28T12:21:44;99579.22;;;2.47;100.00
56912;BME280;42800;53.928;27.662;2023-02-28T12:24:35;99552.84;;;2.80;100.00
56912;BME280;42800;53.928;27.662;2023-02-28T12:27:08;99565.84;;;2.78;100.00
56912;BME280;42800;53.928;27.662;2023-02-28T12:29:43;99541.41;;;2.56;100.00
56912;BME280;42800;53.928;27.662;2023-02-28T12:32:16;99540.19;;;2.76;100.00
56912;BME280;42800;53.928;27.662;2023-02-28T12:34:48;99517.25;;;2.73;100.00
56912;BME280;42800;53.928;27.662;2023-02-28T12:37:19;99515.63;;;2.72;100.00
56912;BME280;42800;53.928;27.662;2023-02-28T12:39:51;99503.34;;;2.89;100.00
56912;BME280;42800;53.928;27.662;2023-02-28T12:42:24;99490.09;;;3.01;100.00
56912;BME280;42800;53.928;27.662;2023-02-28T12:44:59;99450.44;;;5.25;100.00
56912;BME280;42800;53.928;27.662;2023-02-28T12:47:25;99519.66;;;4.84;100.00
56912;BME280;42800;53.928;27.662;2023-02-28T12:49:54;99545.84;;;3.92;100.00
56912;BME280;42800;53.928;27.662;2023-02-28T12:52:28;99521.44;;;3.16;100.00
56912;BME280;42800;53.928;27.662;2023-02-28T12:55:02;99515.53;;;3.14;100.00
56912;BME280;42800;53.928;27.662;2023-02-28T12:57:36;99533.53;;;2.96;100.00
56912;BME280;42800;53.928;27.662;2023-02-28T13:00:10;99533.28;;;2.83;100.00